Time;durP1;ratioP1;P1;durP2;ratioP2;P2;SDS_P1;SDS_P2;PMS_P1;PMS_P2;Temp;Humidity;BMP_temperature;BMP_pressure;BME280_temperature;BME280_humidity;BME280_pressure;Samples;Min_cycle;Max_cycle;Signal;HPM_P1;HPM_P2
2022/12/10 00:01:12;;;;;;;1.23;1.13;;;;;;;11.08;62.15;94468.22;5068343;28;20527;-67
2022/12/10 00:03:39;;;;;;;9.33;1.90;;;;;;;11.64;60.11;94471.34;5068372;28;20999;-67
2022/12/10 00:06:10;;;;;;;1.60;1.30;;;;;;;11.98;59.23;94479.31;5068110;28;20962;-67
2022/12/10 00:08:37;;;;;;;0.47;0.30;;;;;;;11.08;61.95;94486.59;5068599;28;20434;-65
2022/12/10 00:11:07;;;;;;;0.27;0.27;;;;;;;11.77;60.46;94477.88;5068670;28;20442;-68
2022/12/10 00:13:35;;;;;;;0.10;0.10;;;;;;;11.76;59.52;94457.94;5068595;28;20438;-68
2022/12/10 00:16:04;;;;;;;0.63;0.40;;;;;;;11.50;60.34;94483.50;5068661;28;20466;-70
2022/12/10 00:18:31;;;;;;;3.47;1.40;;;;;;;11.52;60.51;94476.16;5054791;28;20434;-69
2022/12/10 00:21:11;;;;;;;3.67;1.80;;;;;;;11.68;60.08;94459.28;5068662;28;20616;-69
2022/12/10 00:23:38;;;;;;;0.30;0.30;;;;;;;11.81;59.81;94442.13;5053937;28;20941;-65
2022/12/10 00:26:17;;;;;;;0.60;0.60;;;;;;;11.64;60.32;94457.47;5068409;28;20818;-67
2022/12/10 00:28:45;;;;;;;0.67;0.67;;;;;;;11.67;60.27;94441.19;5061796;28;20439;-67
2022/12/10 00:31:18;;;;;;;0.40;0.40;;;;;;;11.74;60.24;94462.66;5030335;28;20539;-69
2022/12/10 00:33:46;;;;;;;2.10;0.60;;;;;;;11.74;59.87;94470.53;5035810;28;20454;-67
2022/12/10 00:36:26;;;;;;;1.13;1.03;;;;;;;11.47;60.57;94457.03;5056971;28;20562;-68
2022/12/10 00:38:54;;;;;;;2.67;1.60;;;;;;;11.71;60.25;94464.00;5053565;28;20441;-65
2022/12/10 00:41:21;;;;;;;0.97;0.83;;;;;;;11.84;59.91;94467.88;5054072;28;20990;-67
2022/12/10 00:43:48;;;;;;;0.40;0.40;;;;;;;11.86;59.63;94468.38;5068196;28;20446;-65
2022/12/10 00:46:17;;;;;;;0.73;0.43;;;;;;;12.05;58.97;94461.41;5067860;28;20971;-67
2022/12/10 00:48:45;;;;;;;10.20;3.57;;;;;;;11.64;60.57;94446.97;5050044;28;20462;-65
2022/12/10 00:51:15;;;;;;;5.20;1.77;;;;;;;11.69;60.66;94457.47;5047860;28;20438;-68
2022/12/10 00:53:45;;;;;;;0.23;0.23;;;;;;;11.79;60.45;94475.75;5051831;28;20541;-69
2022/12/10 00:56:14;;;;;;;0.40;0.40;;;;;;;11.75;60.05;94464.25;5047543;28;20530;-66
2022/12/10 00:58:41;;;;;;;5.13;1.30;;;;;;;12.02;59.95;94454.06;5062066;28;20515;-68
2022/12/10 01:01:21;;;;;;;0.30;0.30;;;;;;;11.70;60.37;94493.91;5071285;28;21088;-65
2022/12/10 01:03:54;;;;;;;0.60;0.60;;;;;;;11.32;61.85;94486.75;5071834;28;20831;-68
2022/12/10 01:06:25;;;;;;;2.00;0.57;;;;;;;11.73;60.68;94467.13;5071492;28;20448;-67
2022/12/10 01:08:54;;;;;;;0.80;0.67;;;;;;;11.19;62.06;94482.88;5071513;28;20446;-68
2022/12/10 01:11:24;;;;;;;1.23;1.13;;;;;;;11.15;62.31;94471.34;5068906;28;20435;-68
2022/12/10 01:13:52;;;;;;;0.70;0.70;;;;;;;11.14;61.43;94401.63;5061036;28;20434;-67
2022/12/10 01:16:21;;;;;;;0.47;0.47;;;;;;;11.33;62.15;94456.06;5057932;28;20458;-68
2022/12/10 01:18:54;;;;;;;0.10;0.10;;;;;;;11.19;62.47;94467.13;5051386;28;20466;-66
2022/12/10 01:21:22;;;;;;;1.40;1.30;;;;;;;11.61;61.20;94447.50;5066744;28;20864;-67
2022/12/10 01:23:50;;;;;;;1.07;0.87;;;;;;;11.84;60.32;94452.13;5072155;28;20491;-66
2022/12/10 01:26:36;;;;;;;0.20;0.20;;;;;;;11.78;60.54;94440.88;5053243;28;20534;-64
2022/12/10 01:29:04;;;;;;;0.40;0.40;;;;;;;11.44;61.48;94457.59;5040551;28;20442;-66
2022/12/10 01:31:34;;;;;;;1.90;0.97;;;;;;;11.75;60.56;94448.50;5051342;28;20431;-67
2022/12/10 01:34:02;;;;;;;7.30;2.20;;;;;;;11.58;60.98;94455.91;5051098;28;20509;-69
2022/12/10 01:36:37;;;;;;;10.43;3.33;;;;;;;11.45;61.92;94453.88;5033253;28;20961;-67
2022/12/10 01:39:07;;;;;;;0.30;0.30;;;;;;;11.74;61.32;94416.22;5051169;28;20520;-66
2022/12/10 01:41:41;;;;;;;0.33;0.33;;;;;;;11.55;61.06;94436.25;5029741;28;21002;-67
2022/12/10 01:44:09;;;;;;;5.97;3.20;;;;;;;11.24;62.34;94458.44;5030903;28;20509;-67
2022/12/10 01:46:51;;;;;;;0.30;0.30;;;;;;;11.65;61.37;94444.09;5045313;28;20448;-65
2022/12/10 01:49:39;;;;;;;0.20;0.20;;;;;;;11.48;61.61;94459.38;5020546;28;20989;-69
2022/12/10 01:52:10;;;;;;;0.10;0.10;;;;;;;11.82;60.64;94435.84;5031037;28;20446;-65
2022/12/10 01:54:40;;;;;;;0.10;0.10;;;;;;;11.91;60.54;94434.22;5035530;28;20679;-68
2022/12/10 01:57:37;;;;;;;0.33;0.33;;;;;;;12.07;59.97;94417.28;5021206;28;20942;-67
2022/12/10 02:00:06;;;;;;;0.30;0.30;;;;;;;11.97;60.79;94443.63;5012209;28;20466;-68
2022/12/10 02:02:55;;;;;;;0.37;0.37;;;;;;;11.84;61.05;94423.25;5035493;28;20497;-68
2022/12/10 02:05:41;;;;;;;0.83;0.83;;;;;;;12.14;60.40;94428.22;5029139;28;20547;-66
2022/12/10 02:08:32;;;;;;;0.10;0.10;;;;;;;12.01;60.48;94420.97;5017256;28;20451;-67
2022/12/10 02:11:09;;;;;;;3.20;0.43;;;;;;;11.93;61.07;94442.59;5032942;28;20451;-67
2022/12/10 02:13:42;;;;;;;0.10;0.10;;;;;;;12.19;60.47;94428.19;5019789;28;20449;-68
2022/12/10 02:16:30;;;;;;;0.10;0.10;;;;;;;11.97;60.89;94446.25;5017927;28;20821;-66
2022/12/10 02:19:18;;;;;;;2.13;1.90;;;;;;;12.00;60.81;94430.72;5032134;28;20846;-65
2022/12/10 02:21:48;;;;;;;0.00;0.00;;;;;;;11.94;61.21;94457.28;5027557;28;21079;-70
2022/12/10 02:24:30;;;;;;;0.30;0.30;;;;;;;11.63;62.56;94445.38;5023227;28;20966;-68
2022/12/10 02:26:57;;;;;;;0.27;0.27;;;;;;;12.03;61.41;94419.66;5030440;28;20799;-69
2022/12/10 02:29:26;;;;;;;1.17;1.10;;;;;;;12.09;60.92;94428.28;5040289;28;20439;-70
2022/12/10 02:32:00;;;;;;;0.10;0.10;;;;;;;11.68;62.08;94434.88;5036277;28;20778;-70
2022/12/10 02:34:38;;;;;;;0.40;0.40;;;;;;;11.80;61.84;94395.97;5029170;28;20491;-69
2022/12/10 02:37:13;;;;;;;0.30;0.30;;;;;;;11.91;61.97;94410.56;5026068;28;20458;-70
2022/12/10 02:39:45;;;;;;;0.00;0.00;;;;;;;12.07;61.40;94396.25;5028370;28;20454;-72
2022/12/10 02:42:16;;;;;;;0.20;0.20;;;;;;;11.60;62.45;94404.75;5020830;28;20510;-68
2022/12/10 02:44:46;;;;;;;0.30;0.30;;;;;;;11.37;63.46;94431.63;5030181;28;20454;-71
2022/12/10 02:47:15;;;;;;;0.30;0.30;;;;;;;11.33;63.40;94388.63;5016771;28;20455;-69
2022/12/10 02:49:48;;;;;;;0.40;0.40;;;;;;;11.18;64.20;94413.09;5025657;28;20439;-69
2022/12/10 02:52:18;;;;;;;3.00;0.60;;;;;;;11.89;62.46;94381.19;5029929;28;20550;-68
2022/12/10 02:54:49;;;;;;;0.20;0.20;;;;;;;11.61;62.84;94405.50;5015066;28;20447;-67
2022/12/10 02:57:25;;;;;;;0.10;0.10;;;;;;;11.67;63.24;94409.69;5021876;28;20469;-71
2022/12/10 03:00:22;;;;;;;0.17;0.17;;;;;;;11.81;62.72;94400.13;5014956;28;20436;-67
2022/12/10 03:03:18;;;;;;;0.40;0.37;;;;;;;11.90;62.14;94409.00;5047415;28;20487;-70
2022/12/10 03:06:14;;;;;;;0.93;0.83;;;;;;;11.94;62.18;94399.50;5049500;28;20475;-71
2022/12/10 03:08:50;;;;;;;0.43;0.30;;;;;;;12.26;61.00;94407.66;5049465;28;20434;-69
2022/12/10 03:11:22;;;;;;;0.33;0.33;;;;;;;12.26;60.70;94418.16;5046811;28;20439;-71
2022/12/10 03:14:29;;;;;;;0.60;0.60;;;;;;;12.38;61.57;94412.53;5017209;28;20942;-71
2022/12/10 03:16:59;;;;;;;0.10;0.10;;;;;;;12.44;61.11;94393.81;4967996;28;20447;-70
2022/12/10 03:19:40;;;;;;;0.37;0.37;;;;;;;12.10;61.04;94393.06;4968348;28;20447;-68
2022/12/10 03:22:09;;;;;;;0.00;0.00;;;;;;;11.90;62.19;94409.78;5012449;28;20487;-70
2022/12/10 03:24:37;;;;;;;0.40;0.40;;;;;;;12.17;61.51;94396.94;5035426;28;20440;-72
2022/12/10 03:27:06;;;;;;;0.10;0.10;;;;;;;12.18;61.54;94392.47;5049680;28;20443;-68
2022/12/10 03:29:37;;;;;;;0.13;0.13;;;;;;;12.13;61.99;94397.78;5049272;28;20435;-72
2022/12/10 03:32:05;;;;;;;1.90;1.07;;;;;;;12.22;61.17;94404.78;5050760;28;20447;-68
2022/12/10 03:34:34;;;;;;;0.10;0.10;;;;;;;12.22;61.25;94391.63;5052557;28;20443;-68
2022/12/10 03:37:02;;;;;;;0.00;0.00;;;;;;;12.13;61.88;94397.78;5049128;28;20443;-69
2022/12/10 03:39:29;;;;;;;1.70;1.10;;;;;;;12.27;61.40;94408.41;5048752;28;20462;-71
2022/12/10 03:41:55;;;;;;;0.10;0.10;;;;;;;12.38;61.48;94400.16;5035644;28;20532;-71
2022/12/10 03:44:34;;;;;;;0.30;0.30;;;;;;;12.16;61.67;94391.97;5049192;28;20481;-71
2022/12/10 03:47:02;;;;;;;0.10;0.10;;;;;;;12.11;62.00;94389.41;5029017;28;20459;-71
2022/12/10 03:49:29;;;;;;;0.60;0.60;;;;;;;12.01;62.49;94389.47;5041676;28;20438;-68
2022/12/10 03:51:56;;;;;;;1.80;1.50;;;;;;;11.93;62.40;94376.97;5037974;28;20444;-67
2022/12/10 03:54:23;;;;;;;0.20;0.20;;;;;;;11.70;63.11;94367.16;5032012;28;20466;-67
2022/12/10 03:56:50;;;;;;;1.20;0.50;;;;;;;11.75;63.39;94375.00;5039513;28;20440;-72
2022/12/10 03:59:17;;;;;;;0.57;0.53;;;;;;;11.92;62.47;94373.53;5044766;28;20443;-70
2022/12/10 04:01:44;;;;;;;22.47;1.23;;;;;;;11.90;63.21;94383.53;5048583;28;20528;-68
2022/12/10 04:04:11;;;;;;;0.33;0.23;;;;;;;11.71;64.19;94368.75;5049113;28;20443;-69
2022/12/10 04:06:40;;;;;;;0.17;0.17;;;;;;;11.90;64.20;94372.25;5048837;28;20538;-68
2022/12/10 04:09:12;;;;;;;0.20;0.20;;;;;;;12.08;63.62;94384.69;5048785;28;21070;-71
2022/12/10 04:11:41;;;;;;;0.20;0.20;;;;;;;12.20;63.15;94372.78;5043740;28;20440;-69
2022/12/10 04:16:55;;;;;;;0.30;0.30;;;;;;;11.81;65.06;94363.41;5042222;28;20489;-70
2022/12/10 04:19:23;;;;;;;0.07;0.07;;;;;;;12.10;64.54;94377.31;5028967;28;21020;-68
2022/12/10 04:27:28;;;;;;;0.70;0.47;;;;;;;12.32;63.54;94385.50;5052713;28;20451;-70
2022/12/10 04:29:57;;;;;;;0.17;0.17;;;;;;;12.35;63.84;94379.72;5050903;28;20447;-69
2022/12/10 04:32:27;;;;;;;0.50;0.43;;;;;;;12.53;63.50;94367.69;5032915;28;20479;-70
2022/12/10 04:34:54;;;;;;;0.60;0.43;;;;;;;12.50;63.78;94391.91;5046929;28;20541;-68
2022/12/10 04:37:22;;;;;;;0.00;0.00;;;;;;;12.44;64.44;94399.06;5045526;28;20526;-72
2022/12/10 04:39:49;;;;;;;0.30;0.30;;;;;;;12.45;64.20;94389.31;5042796;28;20451;-71
2022/12/10 04:42:18;;;;;;;0.30;0.30;;;;;;;12.44;64.00;94393.03;5042023;28;20499;-68
2022/12/10 04:44:45;;;;;;;0.80;0.80;;;;;;;12.45;64.21;94379.59;5032830;28;20947;-71
2022/12/10 04:47:13;;;;;;;1.90;1.07;;;;;;;12.23;65.29;94364.31;5040154;28;20994;-71
2022/12/10 04:49:40;;;;;;;0.40;0.40;;;;;;;12.26;65.86;94376.13;5052483;28;20435;-70
2022/12/10 04:52:10;;;;;;;1.40;0.60;;;;;;;12.13;66.17;94387.28;5040759;28;20505;-69
2022/12/10 04:54:36;;;;;;;0.47;0.47;;;;;;;12.23;66.36;94392.44;5038282;28;20481;-68
2022/12/10 04:57:06;;;;;;;1.70;1.43;;;;;;;12.31;65.25;94397.09;5052433;28;20434;-69
2022/12/10 04:59:35;;;;;;;0.67;0.67;;;;;;;12.25;65.53;94390.31;5051884;28;20550;-69
2022/12/10 05:02:02;;;;;;;0.40;0.40;;;;;;;11.81;66.96;94411.44;5041736;28;21048;-66
2022/12/10 05:04:29;;;;;;;0.33;0.33;;;;;;;11.95;66.95;94399.25;5048531;28;20509;-69
2022/12/10 05:06:56;;;;;;;1.90;1.50;;;;;;;11.80;67.80;94374.97;5043084;28;20876;-68
2022/12/10 05:09:25;;;;;;;0.50;0.50;;;;;;;12.05;67.79;94398.38;5046363;28;20439;-65
2022/12/10 05:11:52;;;;;;;0.50;0.50;;;;;;;11.91;67.64;94400.06;5051962;28;20439;-67
2022/12/10 05:14:19;;;;;;;0.80;0.77;;;;;;;11.89;67.67;94391.69;5038348;28;20808;-69
2022/12/10 05:16:49;;;;;;;0.70;0.70;;;;;;;11.77;69.08;94389.41;5045528;28;20586;-68
2022/12/10 05:19:16;;;;;;;0.00;0.00;;;;;;;11.78;69.05;94392.81;5043588;28;20447;-66
2022/12/10 05:24:28;;;;;;;0.30;0.30;;;;;;;12.14;67.29;94380.97;5044249;28;20530;-69
2022/12/10 05:26:57;;;;;;;0.13;0.13;;;;;;;12.27;67.51;94371.63;5051413;28;20439;-69
2022/12/10 05:29:24;;;;;;;0.37;0.37;;;;;;;11.94;68.50;94371.44;5051285;28;20551;-67
2022/12/10 05:31:51;;;;;;;1.80;1.07;;;;;;;11.79;68.70;94360.25;5051277;28;20937;-66
2022/12/10 05:34:18;;;;;;;0.50;0.50;;;;;;;12.33;66.96;94371.34;5041341;28;20428;-69
2022/12/10 05:36:45;;;;;;;0.30;0.30;;;;;;;12.47;66.41;94377.47;5045316;28;20471;-69
2022/12/10 05:39:12;;;;;;;0.20;0.20;;;;;;;12.31;67.52;94373.44;5039402;28;20441;-66
2022/12/10 05:41:40;;;;;;;1.20;0.70;;;;;;;12.68;66.43;94370.94;5037383;28;20646;-66
2022/12/10 05:44:09;;;;;;;0.20;0.20;;;;;;;12.18;67.66;94379.34;5055370;28;20439;-65
2022/12/10 05:46:36;;;;;;;0.47;0.47;;;;;;;12.19;68.37;94383.53;5037303;28;20816;-68
2022/12/10 05:49:05;;;;;;;1.60;1.17;;;;;;;12.65;66.66;94384.63;5050479;28;20494;-65
2022/12/10 05:51:34;;;;;;;14.17;1.63;;;;;;;12.57;67.11;94397.63;5042845;28;20446;-68
2022/12/10 05:54:03;;;;;;;0.20;0.20;;;;;;;12.88;66.49;94396.97;5027101;28;20478;-70
2022/12/10 05:56:30;;;;;;;0.60;0.60;;;;;;;12.89;65.88;94390.69;5030929;28;20765;-68
2022/12/10 05:59:00;;;;;;;0.43;0.30;;;;;;;12.81;65.56;94399.16;5043781;28;20546;-65
2022/12/10 06:01:31;;;;;;;0.93;0.93;;;;;;;12.49;66.60;94390.34;5036453;28;21005;-68
2022/12/10 06:04:00;;;;;;;0.10;0.10;;;;;;;12.65;66.20;94399.63;5037191;28;20440;-68
2022/12/10 06:06:30;;;;;;;0.40;0.40;;;;;;;12.61;66.61;94394.13;5030140;28;20440;-69
2022/12/10 06:08:57;;;;;;;0.60;0.60;;;;;;;12.89;66.24;94405.66;5031948;28;20531;-68
2022/12/10 06:11:26;;;;;;;0.37;0.37;;;;;;;12.95;66.13;94404.53;5029485;28;20443;-69
2022/12/10 06:13:54;;;;;;;0.67;0.67;;;;;;;12.97;65.15;94397.94;5028860;28;20522;-68
2022/12/10 06:16:24;;;;;;;0.43;0.43;;;;;;;13.12;65.24;94403.03;5030255;28;20439;-66
2022/12/10 06:18:51;;;;;;;0.43;0.43;;;;;;;13.10;65.03;94391.25;5045880;28;20439;-69
2022/12/10 06:21:19;;;;;;;1.60;1.40;;;;;;;12.98;65.38;94386.34;5050404;28;20443;-68
2022/12/10 06:23:48;;;;;;;0.23;0.23;;;;;;;12.87;65.96;94394.63;5036646;28;20499;-68
2022/12/10 06:26:18;;;;;;;1.10;0.83;;;;;;;12.97;66.19;94402.41;5036657;28;20474;-67
2022/12/10 06:28:46;;;;;;;1.70;1.07;;;;;;;12.77;67.00;94403.41;5037263;28;20828;-67
2022/12/10 06:31:14;;;;;;;0.63;0.63;;;;;;;13.08;66.04;94396.75;5035149;28;20431;-68
2022/12/10 06:33:41;;;;;;;0.60;0.60;;;;;;;13.04;65.60;94393.16;5050306;28;20443;-67
2022/12/10 06:36:11;;;;;;;2.63;1.80;;;;;;;13.01;66.13;94380.53;5032199;28;20459;-67
2022/12/10 06:38:39;;;;;;;0.10;0.10;;;;;;;12.82;66.82;94358.69;5043103;28;20981;-68
2022/12/10 06:41:08;;;;;;;2.23;1.50;;;;;;;12.48;68.34;94373.78;5028900;28;20988;-67
2022/12/10 06:43:36;;;;;;;0.73;0.73;;;;;;;12.35;68.49;94382.34;5028674;28;20522;-69
2022/12/10 06:46:12;;;;;;;0.10;0.10;;;;;;;12.61;67.67;94378.38;5028947;28;20475;-68
2022/12/10 06:48:41;;;;;;;0.77;0.70;;;;;;;12.63;67.27;94385.97;5027631;28;20482;-68
2022/12/10 06:51:09;;;;;;;1.07;0.57;;;;;;;12.60;68.32;94392.59;5031844;28;21009;-72
2022/12/10 06:53:37;;;;;;;3.20;1.53;;;;;;;12.83;66.43;94391.78;5032233;28;20506;-72
2022/12/10 06:56:06;;;;;;;1.23;1.13;;;;;;;12.93;67.07;94402.19;5012439;28;20448;-71
2022/12/10 06:58:34;;;;;;;0.60;0.60;;;;;;;13.10;66.49;94397.25;5032253;28;20864;-72
2022/12/10 07:01:08;;;;;;;1.60;1.30;;;;;;;13.16;65.96;94411.94;5033444;28;20475;-72
2022/12/10 07:03:35;;;;;;;1.63;1.53;;;;;;;13.09;66.74;94419.38;5028045;28;20505;-75
2022/12/10 07:06:04;;;;;;;0.53;0.53;;;;;;;13.23;66.28;94395.78;5028795;28;20436;-72
2022/12/10 07:08:31;;;;;;;1.37;0.87;;;;;;;13.27;65.73;94417.03;5030098;28;20978;-71
2022/12/10 07:10:58;;;;;;;0.30;0.30;;;;;;;13.35;65.83;94405.91;5030666;28;20440;-71
2022/12/10 07:13:25;;;;;;;0.67;0.67;;;;;;;13.26;66.22;94397.09;5028094;28;20459;-72
2022/12/10 07:15:57;;;;;;;1.07;0.97;;;;;;;12.92;67.59;94408.50;5029874;28;20868;-73
2022/12/10 07:18:25;;;;;;;0.83;0.83;;;;;;;12.99;67.52;94406.31;5027456;28;20464;-72
2022/12/10 07:20:52;;;;;;;0.60;0.60;;;;;;;13.08;66.66;94409.91;5029714;28;20523;-72
2022/12/10 07:23:19;;;;;;;2.03;1.83;;;;;;;13.23;66.11;94401.84;5028058;28;20471;-72
2022/12/10 07:25:46;;;;;;;1.83;0.97;;;;;;;12.09;68.46;94397.56;5029902;28;20484;-73
2022/12/10 07:28:13;;;;;;;0.77;0.77;;;;;;;12.47;68.46;94390.63;5028363;28;20539;-72
2022/12/10 07:30:40;;;;;;;1.40;1.30;;;;;;;12.55;67.71;94371.63;5036287;28;20440;-71
2022/12/10 07:33:06;;;;;;;2.43;1.60;;;;;;;12.58;68.60;94373.69;5027784;28;20534;-71
2022/12/10 07:35:33;;;;;;;0.80;0.80;;;;;;;12.98;67.88;94367.94;5029329;28;20488;-73
2022/12/10 07:38:01;;;;;;;2.17;1.37;;;;;;;12.25;69.51;94385.06;5027920;28;20450;-73
2022/12/10 07:40:30;;;;;;;0.70;0.53;;;;;;;12.06;70.36;94384.19;5028016;28;20439;-73
2022/12/10 07:43:07;;;;;;;1.30;0.87;;;;;;;11.98;69.68;94330.44;4995085;28;20553;-73
2022/12/10 07:45:34;;;;;;;2.10;1.00;;;;;;;12.35;70.33;94345.56;5010943;28;20483;-74
2022/12/10 07:48:01;;;;;;;1.23;1.13;;;;;;;12.38;70.35;94367.84;5027840;28;20567;-76
2022/12/10 07:50:28;;;;;;;0.10;0.10;;;;;;;12.78;69.43;94378.72;5014239;28;20435;-76
2022/12/10 07:52:55;;;;;;;0.40;0.40;;;;;;;12.87;68.76;94373.59;5038159;28;21697;-74
2022/12/10 07:55:23;;;;;;;0.17;0.17;;;;;;;12.53;69.71;94386.09;5039343;28;20431;-76
2022/12/10 07:57:50;;;;;;;0.30;0.30;;;;;;;12.81;69.10;94377.38;5029549;28;20519;-74
2022/12/10 08:00:18;;;;;;;1.23;1.13;;;;;;;12.88;68.64;94359.41;5028646;28;20547;-76
2022/12/10 08:02:45;;;;;;;0.50;0.50;;;;;;;13.06;68.21;94363.94;5031818;28;20917;-74
2022/12/10 08:05:12;;;;;;;0.50;0.50;;;;;;;13.36;66.74;94346.97;5034092;28;20439;-74
2022/12/10 08:07:39;;;;;;;1.10;1.03;;;;;;;13.56;66.41;94346.63;5031629;28;20427;-72
2022/12/10 08:10:06;;;;;;;0.77;0.67;;;;;;;13.40;66.49;94353.19;5033816;28;20450;-69
2022/12/10 08:12:34;;;;;;;0.63;0.63;;;;;;;13.64;66.23;94343.38;5030945;28;20448;-67
2022/12/10 08:15:02;;;;;;;0.40;0.40;;;;;;;13.78;65.34;94354.72;5032272;28;20439;-67
2022/12/10 08:17:29;;;;;;;2.10;1.90;;;;;;;13.80;66.18;94349.94;5030541;28;20444;-68
2022/12/10 08:19:55;;;;;;;0.90;0.90;;;;;;;13.80;65.10;94355.22;5032216;28;20472;-69
2022/12/10 08:22:22;;;;;;;0.40;0.40;;;;;;;13.98;65.46;94349.13;5030835;28;20440;-67
2022/12/10 08:24:49;;;;;;;0.40;0.40;;;;;;;13.86;65.90;94357.50;5031422;28;20538;-68
2022/12/10 08:27:17;;;;;;;0.47;0.47;;;;;;;13.60;66.01;94352.91;5030743;28;20450;-70
2022/12/10 08:29:43;;;;;;;1.33;1.33;;;;;;;13.88;66.06;94338.75;5030721;28;20436;-69
2022/12/10 08:32:10;;;;;;;1.30;1.20;;;;;;;14.24;65.43;94337.06;5031810;28;20443;-67
2022/12/10 08:34:37;;;;;;;7.53;5.27;;;;;;;14.68;63.88;94320.72;5030025;28;20530;-67
2022/12/10 08:37:04;;;;;;;1.27;1.17;;;;;;;14.94;61.63;94335.72;5031383;28;20444;-66
2022/12/10 08:39:38;;;;;;;0.40;0.40;;;;;;;14.30;63.77;94335.16;5030198;28;20442;-67
2022/12/10 08:42:04;;;;;;;0.63;0.63;;;;;;;14.10;63.52;94331.78;5030174;28;20518;-71
2022/12/10 08:44:31;;;;;;;3.17;1.17;;;;;;;14.06;65.03;94330.03;5011404;28;20585;-68
2022/12/10 08:46:58;;;;;;;2.00;1.90;;;;;;;13.86;65.48;94319.84;5029837;28;20497;-67
2022/12/10 08:49:25;;;;;;;7.27;4.57;;;;;;;13.38;67.25;94307.97;5029644;28;20440;-67
2022/12/10 08:51:53;;;;;;;15.77;11.17;;;;;;;13.95;66.40;94331.28;5032502;28;20529;-62
2022/12/10 08:54:19;;;;;;;0.43;0.43;;;;;;;13.70;66.49;94303.53;5029401;28;20528;-68
2022/12/10 08:56:46;;;;;;;3.33;2.63;;;;;;;13.67;67.14;94290.91;5029991;28;20487;-69
2022/12/10 08:59:13;;;;;;;0.93;0.93;;;;;;;13.92;67.08;94289.72;5029352;28;20447;-69
2022/12/10 09:01:40;;;;;;;2.77;2.13;;;;;;;13.99;66.85;94298.00;5031008;28;20932;-69
2022/12/10 09:04:08;;;;;;;0.60;0.60;;;;;;;14.10;66.26;94304.66;5029070;28;20491;-68
2022/12/10 09:06:35;;;;;;;1.57;1.47;;;;;;;14.12;66.09;94252.47;5029849;28;20786;-66
2022/12/10 09:09:02;;;;;;;1.67;1.57;;;;;;;14.61;65.47;94307.16;5028840;28;21033;-70
2022/12/10 09:11:32;;;;;;;7.83;2.63;;;;;;;14.78;65.26;94292.28;5031284;28;20519;-67
2022/12/10 09:14:03;;;;;;;6.00;3.23;;;;;;;14.11;66.64;94290.41;5028439;28;20498;-72
2022/12/10 09:16:36;;;;;;;1.70;1.23;;;;;;;14.49;65.43;94297.09;5030915;28;20475;-67
2022/12/10 09:19:04;;;;;;;0.73;0.57;;;;;;;14.72;64.63;94285.56;5029482;28;20502;-68
2022/12/10 09:21:31;;;;;;;1.07;0.80;;;;;;;14.16;65.91;94266.59;5030502;28;20518;-68
2022/12/10 09:23:58;;;;;;;0.60;0.60;;;;;;;14.58;65.24;94279.50;5029070;28;20491;-69
2022/12/10 09:26:26;;;;;;;0.60;0.60;;;;;;;14.31;64.88;94292.69;5030807;28;20446;-69
2022/12/10 09:28:54;;;;;;;0.17;0.17;;;;;;;14.26;65.93;94300.69;5029624;28;21012;-68
2022/12/10 09:31:21;;;;;;;0.90;0.67;;;;;;;14.53;65.51;94295.44;5030457;28;20813;-68
2022/12/10 09:33:50;;;;;;;0.00;0.00;;;;;;;14.68;64.88;94279.31;5029803;28;20911;-70
2022/12/10 09:36:18;;;;;;;0.63;0.63;;;;;;;14.24;65.93;94279.09;5030394;28;20436;-68
2022/12/10 09:38:47;;;;;;;1.93;1.13;;;;;;;14.77;65.61;94272.28;5029414;28;20984;-69
2022/12/10 09:41:29;;;;;;;0.30;0.30;;;;;;;14.36;65.91;94274.16;5029804;28;20862;-67
2022/12/10 09:44:31;;;;;;;1.67;1.43;;;;;;;14.86;65.14;94251.25;5011941;28;20576;-69
2022/12/10 09:47:01;;;;;;;0.63;0.63;;;;;;;14.92;64.47;94227.13;5031050;28;20454;-69
2022/12/10 09:49:50;;;;;;;0.20;0.20;;;;;;;15.00;65.00;94228.22;5028646;28;20982;-67
2022/12/10 09:52:22;;;;;;;2.93;0.97;;;;;;;15.31;63.21;94225.69;5032001;28;20467;-68
2022/12/10 09:54:58;;;;;;;0.80;0.80;;;;;;;15.06;65.23;94233.13;5029149;28;20450;-68
2022/12/10 09:57:30;;;;;;;0.50;0.50;;;;;;;15.03;64.97;94238.22;5029109;28;20443;-69
2022/12/10 10:00:03;;;;;;;1.10;0.90;;;;;;;15.08;64.16;94236.25;5027020;28;20480;-68
2022/12/10 10:02:38;;;;;;;1.00;0.90;;;;;;;15.33;63.80;94240.13;5028507;28;20478;-70
2022/12/10 10:05:05;;;;;;;0.33;0.33;;;;;;;15.23;63.73;94235.91;5031166;28;20475;-70
2022/12/10 10:07:36;;;;;;;0.70;0.57;;;;;;;14.90;66.14;94231.91;5032542;28;20509;-70
2022/12/10 10:10:07;;;;;;;0.93;0.93;;;;;;;15.46;63.78;94222.69;5028719;28;20491;-70
2022/12/10 10:12:34;;;;;;;1.53;1.33;;;;;;;16.03;62.02;94224.41;5028983;28;20527;-68
2022/12/10 10:15:15;;;;;;;0.97;0.97;;;;;;;16.36;62.24;94216.91;5028257;28;20452;-68
2022/12/10 10:17:49;;;;;;;1.10;0.97;;;;;;;16.68;60.11;94206.72;5029528;28;20498;-68
2022/12/10 10:20:16;;;;;;;3.37;1.57;;;;;;;16.81;59.79;94213.75;5026864;28;20795;-69
2022/12/10 10:22:44;;;;;;;1.70;1.27;;;;;;;16.81;60.36;94226.97;5027594;28;20482;-69
2022/12/10 10:25:16;;;;;;;0.53;0.53;;;;;;;16.90;58.63;94222.47;5027736;28;20446;-69
2022/12/10 10:27:44;;;;;;;0.83;0.83;;;;;;;16.55;59.07;94210.28;5027271;28;20440;-67
2022/12/10 10:30:19;;;;;;;1.67;1.50;;;;;;;16.41;59.84;94209.59;5027268;28;20526;-65
2022/12/10 10:32:55;;;;;;;1.53;1.43;;;;;;;16.24;59.87;94198.97;5027221;28;20479;-70
2022/12/10 10:35:33;;;;;;;1.17;1.07;;;;;;;16.52;59.54;94189.75;5027824;28;20439;-69
2022/12/10 10:38:05;;;;;;;1.13;1.03;;;;;;;16.73;59.81;94169.53;5028117;28;20510;-71
2022/12/10 10:40:45;;;;;;;0.97;0.80;;;;;;;17.10;59.22;94163.63;5027564;28;20487;-69
2022/12/10 10:43:18;;;;;;;0.83;0.83;;;;;;;17.28;58.94;94161.72;5027729;28;20558;-66
2022/12/10 10:45:54;;;;;;;1.27;1.17;;;;;;;16.70;58.67;94164.88;5028081;28;20833;-68
2022/12/10 10:48:24;;;;;;;1.43;1.33;;;;;;;16.81;58.73;94160.81;5027759;28;20569;-69
2022/12/10 10:51:06;;;;;;;7.03;1.43;;;;;;;16.85;58.23;94168.91;5029027;28;20467;-69
2022/12/10 10:53:42;;;;;;;1.20;1.20;;;;;;;16.44;58.88;94171.19;5027581;28;21031;-68
2022/12/10 10:56:22;;;;;;;6.43;3.03;;;;;;;16.99;57.71;94178.25;5028322;28;20442;-68
2022/12/10 10:59:12;;;;;;;1.63;1.47;;;;;;;16.39;59.53;94169.47;5027226;28;20443;-70
2022/12/10 11:01:44;;;;;;;1.13;0.87;;;;;;;16.69;60.19;94158.03;5027199;28;20502;-68
2022/12/10 11:04:13;;;;;;;1.70;1.20;;;;;;;16.98;59.60;94152.91;5027454;28;20620;-68
2022/12/10 11:06:41;;;;;;;4.57;2.60;;;;;;;17.15;59.18;94155.50;5027864;28;20468;-70
2022/12/10 11:09:21;;;;;;;0.80;0.80;;;;;;;17.15;57.93;94133.56;5027879;28;20462;-68
2022/12/10 11:12:07;;;;;;;0.90;0.90;;;;;;;16.92;60.05;94140.13;5036058;28;20459;-69
2022/12/10 11:14:45;;;;;;;1.03;0.93;;;;;;;17.07;58.86;94121.91;5029438;28;20508;-68
2022/12/10 11:17:16;;;;;;;1.10;1.03;;;;;;;17.27;58.67;94119.69;5044133;28;20443;-67
2022/12/10 11:20:17;;;;;;;3.67;2.83;;;;;;;17.11;58.99;94111.47;5049310;28;20442;-68
2022/12/10 11:22:56;;;;;;;0.10;0.10;;;;;;;17.01;58.75;94077.38;5013480;28;20529;-69
2022/12/10 11:25:32;;;;;;;3.13;1.80;;;;;;;17.07;59.76;94089.34;5046415;28;20538;-69
2022/12/10 11:28:10;;;;;;;1.63;1.37;;;;;;;17.17;59.59;94078.41;5046560;28;20445;-70
2022/12/10 11:30:49;;;;;;;1.17;1.07;;;;;;;16.93;60.06;94094.81;5031504;28;20440;-69
2022/12/10 11:33:41;;;;;;;0.83;0.83;;;;;;;17.70;57.85;94070.03;5036632;28;20443;-71
2022/12/10 11:36:29;;;;;;;0.53;0.53;;;;;;;17.92;57.25;94067.09;5029606;28;20554;-70
2022/12/10 11:39:26;;;;;;;1.37;0.50;;;;;;;18.19;56.32;94082.53;5043433;28;20795;-70
2022/12/10 11:42:13;;;;;;;1.67;1.57;;;;;;;17.91;55.18;94081.44;5031685;28;20478;-69
2022/12/10 11:45:12;;;;;;;0.40;0.40;;;;;;;18.48;54.32;94079.88;5004257;28;20598;-69
2022/12/10 11:48:09;;;;;;;0.30;0.30;;;;;;;18.49;53.71;94081.41;5045354;28;20477;-69
2022/12/10 11:50:42;;;;;;;0.27;0.27;;;;;;;18.62;53.21;94079.59;5022239;28;20517;-70
2022/12/10 11:53:15;;;;;;;0.30;0.30;;;;;;;18.72;52.65;94076.56;5044569;28;21041;-69
2022/12/10 11:56:04;;;;;;;0.87;0.73;;;;;;;18.46;53.63;94079.41;5035317;28;20468;-70
2022/12/10 11:58:40;;;;;;;0.00;0.00;;;;;;;18.19;54.01;94075.34;5048711;28;20435;-69
2022/12/10 12:01:21;;;;;;;0.07;0.07;;;;;;;17.93;54.48;94072.09;5035196;28;20448;-68
2022/12/10 12:04:14;;;;;;;0.10;0.10;;;;;;;18.13;54.39;94052.00;5039848;28;20482;-69
2022/12/10 12:06:53;;;;;;;0.60;0.60;;;;;;;18.10;54.79;94057.97;5032718;28;20443;-69